Preview of NWS' New Version of Forecast
This preview is not operational and should not be used for support decisions.
Latest weather observations around

LOS ALTOS (LOAC1)

Using English Units (Switch to International System of Units)
Date/ Time (PST) Wind (mph) Vis. (mi) Weather Sky Cond. Temp (°F) Rel. Humidity Wind Chill (°F) Heat Index (°F) Pressure Precip. (in)
Air Dwpt 6 hour Altimeter (inHg) Sea level (inHg) 1 hr 3 hr 6 hr
Max Min
Feb 22 00:10 W 3   Clear   42 36     79% 41            
Feb 21 23:10 W 3   Clear   40 33     76% 38            
Feb 21 22:10 WSW 4   Clear   39 29     66% 36            
Feb 21 21:10 Calm   Clear   42 28     58%              
Feb 21 20:10 NNW 4   Clear   45 28     51% 43            
Feb 21 19:10 W 4   Clear   45 32     60% 43            
Feb 21 18:10 WSW 2   Clear   45 32     60%              
Feb 21 17:10 W 2   Clear   51 29     43%              
Feb 21 16:10 SSW 2   Clear   56 30     37%              
Feb 21 15:10 W 3   Clear   54 31     41%              
Feb 21 14:10 NNE 4   Clear   57 32     38%              
Feb 21 13:10 ESE 3   Clear   57 32     38%              
Feb 21 12:10 ENE 4   Clear   55 31     40%              
Feb 21 11:10 NE 4   Clear   54 33     45%              
Feb 21 10:10 E 3   Clear   53 34     49%              
Feb 21 09:10 SE 2   Clear   51 36     57%              
Feb 21 08:10 SW 1   Clear   44 38     78%              
Feb 21 07:10 WSW 3   Clear   41 36     82% 39            
Feb 21 06:10 WSW 3   Clear   39 35     87% 37            
Feb 21 05:10 W 1   Clear   39 35     85%              
Feb 21 04:10 WSW 3   Clear   37 34     88% 35            
Feb 21 03:10 WSW 3   Clear   37 34     88% 35            
Feb 21 02:10 Calm   Clear   37 33     87%              
Feb 21 01:10 WSW 3   Clear   38 33     81% 36            
Feb 21 00:10 WSW 3   Clear   38 32     79% 36            
Feb 20 23:10 WSW 3   Clear   38 32     78% 36            
Feb 20 22:10 WSW 2   Clear   38 31     76%              
Feb 20 21:10 W 1   Clear   41 32     71%              
Feb 20 20:10 NW 2   Clear   43 32     66%              
Feb 20 19:10 WNW 3   Clear   43 30     60% 42            
Feb 20 18:10 WNW 3   Clear   44 26     48% 43            
Feb 20 17:10 WSW 4   Clear   46 22     38% 44            
Feb 20 16:10 SW 4   Clear   48 14     25% 47            
Feb 20 15:10 WSW 5   Clear   52 27     37%              
Feb 20 13:10 S 2   Clear   54 26     33%              
Feb 20 12:10 ENE 4   Clear   53 26     35%              
Feb 20 11:10 NNW 4   Clear   52 28     40%              
Feb 20 10:10 NE 3   Clear   47 25     42% 46            
Feb 20 09:10 SSE 3   Clear   46 28     50% 45            
Feb 20 08:10 WSW 3   Clear   38 27     64% 36            
Feb 20 07:10 WSW 4   Clear   31 22     69% 27            
Feb 20 06:10 WSW 4   Clear   32 23     69% 28            
Feb 20 05:10 W 3   Clear   34 26     73% 32            
Feb 20 04:10 WNW 4   Clear   36 27     69% 33            
Feb 20 03:10 W 2   Clear   34 27     76%              
Feb 20 02:10 WSW 3   Clear   36 28     71% 34            
Feb 20 01:10 W 2   Clear   37 27     66%              
Feb 20 00:10 W 3   Clear   38 27     64% 36            
Feb 19 23:10 W 3   Clear   39 27     62% 37            
Feb 19 22:10 W 3   Clear   41 29     61% 39            
Feb 19 21:10 W 3   Clear   42 30     62% 41            
Feb 19 19:10 W 4   Clear   43 31     63% 41            
Feb 19 18:10 W 3   Clear   44 30     58% 43            
Feb 19 17:10 WNW 2   Clear   46 29     52%              
Feb 19 16:10 WNW 4   Clear   50 31     47% 49            
Feb 19 15:10 WNW 4   Clear   53 27     37%              
Feb 19 14:10 NNW 4   Clear   51 28     40%              
Feb 19 13:10 NE 4   Clear   53 30     41%              
Feb 19 12:10 NNE 4   Clear   51 27     39%              
Feb 19 11:10 SSW 4   Clear   51 26     38%              
Feb 19 10:10 NW 5   Clear   49 28     44% 47            
Feb 19 09:10 W 4   Clear   47 28     47% 45            
Feb 19 08:10 WNW 5   Clear   44 30     58% 41            
Feb 19 07:10 WNW 4   Clear   39 25     58% 36            
Feb 19 06:10 NW 4   Clear   41 28     59% 38            
Feb 19 05:10 WNW 5   Clear   40 27     60% 36            
Feb 19 04:10 NW 4   Clear   39 29     67% 36            
Feb 19 03:10 WNW 3   Clear   40 28     63% 38            
Feb 19 02:10 W 4   Clear   40 29     64% 37            
Feb 19 01:10 WNW 6   Clear   41 29     62% 37            
Jun 11 11:10 W 6   Clear   64 44     48%              
Jun 11 02:10 WNW 4   Clear   52 44     75%              
Jun 10 03:10 WNW 4   Clear   52 45     78%              
Jun 09 21:10 NW 3   Clear   53 46     78%              
Jun 08 10:10 E 2   Clear   67 51     57%              
Jun 07 12:10 E 4   Clear   69 55     62%